createdAt,value
2023-08-02T00:02:16.665Z,73.09
2023-08-02T00:04:42.727Z,73.64
2023-08-02T00:07:08.941Z,73.81
2023-08-02T00:09:34.814Z,74.22
2023-08-02T00:12:00.607Z,74.17
2023-08-02T00:14:26.782Z,73.94
2023-08-02T00:16:52.864Z,74.12
2023-08-02T00:19:18.772Z,74.27
2023-08-02T00:21:44.878Z,74.67
2023-08-02T00:24:11.031Z,73.75
2023-08-02T00:26:37.846Z,73.71
2023-08-02T00:29:05.219Z,73.64
2023-08-02T00:31:31.049Z,74.17
2023-08-02T00:33:56.885Z,74.05
2023-08-02T00:36:22.730Z,74.51
2023-08-02T00:38:48.638Z,75.22
2023-08-02T00:42:01.030Z,74.79
2023-08-02T00:44:26.852Z,75.47
2023-08-02T00:46:53.541Z,75.42
2023-08-02T00:49:19.491Z,75.51
2023-08-02T00:51:45.761Z,75.66
2023-08-02T00:54:11.566Z,75.41
2023-08-02T00:56:39.712Z,75.47
2023-08-02T00:59:05.935Z,75.57
2023-08-02T01:01:31.859Z,75.71
2023-08-02T01:03:58.089Z,75.20
2023-08-02T01:06:26.990Z,74.87
2023-08-02T01:08:58.588Z,74.48
2023-08-02T01:11:34.057Z,75.73
2023-08-02T01:14:05.210Z,75.79
2023-08-02T01:16:32.714Z,76.31
2023-08-02T01:19:02.194Z,76.19
2023-08-02T01:21:28.476Z,76.69
2023-08-02T01:23:54.293Z,76.86
2023-08-02T01:26:20.948Z,77.39
2023-08-02T01:28:52.757Z,77.71
2023-08-02T01:31:21.684Z,78.04
2023-08-02T01:33:52.720Z,77.89
2023-08-02T01:36:18.773Z,77.46
2023-08-02T01:38:44.648Z,77.20
2023-08-02T01:41:10.444Z,77.04
2023-08-02T01:43:36.450Z,77.09
2023-08-02T01:46:02.374Z,75.82
2023-08-02T01:48:28.282Z,76.28
2023-08-02T01:50:54.075Z,75.92
2023-08-02T01:53:19.915Z,75.84
2023-08-02T01:55:45.770Z,75.72
2023-08-02T01:58:11.547Z,74.91
2023-08-02T02:00:37.373Z,75.52
2023-08-02T02:03:03.354Z,75.35
2023-08-02T02:05:29.210Z,74.90
2023-08-02T02:07:55.066Z,75.51
2023-08-02T02:10:20.844Z,75.39
2023-08-02T02:12:46.713Z,75.45
2023-08-02T02:15:12.571Z,76.23
2023-08-02T02:17:40.192Z,75.62
2023-08-02T02:20:06.878Z,76.19
2023-08-02T02:22:32.807Z,75.72
2023-08-02T02:24:58.618Z,75.49
2023-08-02T02:27:24.492Z,75.34
2023-08-02T02:29:50.282Z,75.46
2023-08-02T02:32:16.062Z,74.60
2023-08-02T02:34:41.856Z,74.47
2023-08-02T02:37:07.674Z,74.33
2023-08-02T02:39:33.480Z,74.45
2023-08-02T02:41:59.300Z,74.21
2023-08-02T02:44:42.405Z,73.91
2023-08-02T02:47:09.747Z,73.61
2023-08-02T02:49:35.565Z,73.17
2023-08-02T02:52:01.396Z,73.09
2023-08-02T02:54:27.228Z,73.33
2023-08-02T02:56:53.006Z,73.02
2023-08-02T02:59:18.865Z,72.47
2023-08-02T03:01:44.748Z,72.57
2023-08-02T03:04:10.540Z,72.33
2023-08-02T03:06:36.371Z,72.58
2023-08-02T03:09:02.749Z,72.64
2023-08-02T03:11:28.579Z,72.49
2023-08-02T03:13:54.413Z,71.77
2023-08-02T03:16:20.272Z,71.96
2023-08-02T03:18:46.121Z,71.98
2023-08-02T03:21:11.939Z,71.88
2023-08-02T03:23:37.793Z,72.56
2023-08-02T03:26:03.566Z,72.73
2023-08-02T03:28:29.400Z,72.80
2023-08-02T03:30:55.362Z,72.78
2023-08-02T03:33:21.235Z,72.80
2023-08-02T03:35:47.058Z,72.65
2023-08-02T03:38:12.887Z,72.65
2023-08-02T03:40:38.846Z,72.65
2023-08-02T03:43:04.670Z,72.76
2023-08-02T03:45:30.743Z,72.76
2023-08-02T03:47:56.582Z,72.72
2023-08-02T03:50:22.453Z,73.12
2023-08-02T03:52:49.136Z,72.60
2023-08-02T03:55:14.991Z,72.69
2023-08-02T03:57:40.855Z,72.68
2023-08-02T04:00:07.409Z,72.65
2023-08-02T04:02:33.270Z,72.95
2023-08-02T04:04:59.078Z,73.19
2023-08-02T04:07:24.942Z,72.42
2023-08-02T04:09:50.794Z,72.44
2023-08-02T04:12:20.048Z,72.72
2023-08-02T04:14:46.575Z,72.14
2023-08-02T04:17:12.383Z,72.15
2023-08-02T04:19:38.194Z,72.75
2023-08-02T04:22:04.021Z,72.02
2023-08-02T04:24:30.942Z,72.02
2023-08-02T04:26:56.789Z,72.22
2023-08-02T04:29:22.580Z,72.31
2023-08-02T04:31:48.506Z,71.56
2023-08-02T04:34:14.457Z,72.69
2023-08-02T04:36:40.708Z,72.78
2023-08-02T04:39:07.604Z,72.97
2023-08-02T04:41:33.936Z,72.44
2023-08-02T04:43:59.716Z,73.02
2023-08-02T04:46:27.720Z,72.38
2023-08-02T04:48:53.689Z,73.12
2023-08-02T04:51:19.842Z,73.33
2023-08-02T04:53:47.991Z,73.27
2023-08-02T04:56:14.772Z,73.35
2023-08-02T04:58:41.359Z,73.03
2023-08-02T05:01:07.581Z,73.30
2023-08-02T05:03:34.850Z,73.57
2023-08-02T05:06:05.342Z,73.66
2023-08-02T05:08:33.179Z,73.99
2023-08-02T05:10:59.058Z,74.53
2023-08-02T05:13:25.624Z,74.99
2023-08-02T05:15:52.642Z,74.65
2023-08-02T05:18:18.488Z,73.59
2023-08-02T05:20:44.363Z,74.08
2023-08-02T05:23:10.159Z,73.72
2023-08-02T05:25:36.314Z,73.10
2023-08-02T05:28:02.769Z,73.18
2023-08-02T05:30:29.902Z,72.52
2023-08-02T05:32:56.340Z,72.62
2023-08-02T05:35:23.730Z,72.21
2023-08-02T05:37:49.751Z,72.52
2023-08-02T05:40:15.729Z,71.43
2023-08-02T05:42:41.581Z,71.42
2023-08-02T05:45:07.869Z,71.31
2023-08-02T05:47:33.986Z,71.29
2023-08-02T05:49:59.853Z,70.82
2023-08-02T05:52:25.697Z,70.31
2023-08-02T05:54:51.538Z,69.84
2023-08-02T05:58:22.124Z,70.34
2023-08-02T06:00:47.936Z,70.00
2023-08-02T06:03:13.871Z,70.48
2023-08-02T06:05:39.826Z,70.72
2023-08-02T06:08:05.626Z,70.39
2023-08-02T06:10:31.475Z,69.55
2023-08-02T06:12:58.101Z,70.04
2023-08-02T06:15:24.143Z,70.01
2023-08-02T06:17:51.487Z,70.33
2023-08-02T06:20:17.361Z,70.38
2023-08-02T06:22:43.174Z,70.42
2023-08-02T06:25:09.554Z,70.48
2023-08-02T06:27:35.385Z,69.83
2023-08-02T06:30:01.248Z,70.73
2023-08-02T06:32:27.129Z,69.84
2023-08-02T06:34:53.036Z,69.79
2023-08-02T06:37:18.876Z,70.73
2023-08-02T06:39:44.675Z,70.35
2023-08-02T06:42:10.514Z,70.21
2023-08-02T06:44:36.436Z,70.72
2023-08-02T06:47:02.460Z,69.37
2023-08-02T06:49:28.270Z,69.44
2023-08-02T06:51:54.042Z,69.63
2023-08-02T06:54:19.860Z,69.16
2023-08-02T06:56:45.657Z,68.53
2023-08-02T06:59:11.484Z,69.06
2023-08-02T07:01:37.330Z,67.41
2023-08-02T07:04:03.167Z,68.61
2023-08-02T07:06:29.088Z,66.93
2023-08-02T07:08:56.065Z,67.29
2023-08-02T07:11:34.456Z,66.18
2023-08-02T07:14:02.200Z,65.76
2023-08-02T07:16:28.015Z,65.11
2023-08-02T07:18:54.887Z,65.25
2023-08-02T07:21:20.739Z,64.65
2023-08-02T07:23:46.572Z,65.10
2023-08-02T07:26:12.382Z,63.41
2023-08-02T07:28:38.242Z,62.45
2023-08-02T07:31:12.091Z,61.92
2023-08-02T07:33:38.291Z,62.41
2023-08-02T07:36:05.082Z,62.17
2023-08-02T07:38:31.204Z,61.74
2023-08-02T07:40:57.043Z,60.21
2023-08-02T07:43:22.964Z,59.53
2023-08-02T07:45:48.931Z,59.41
2023-08-02T07:48:14.813Z,60.79
2023-08-02T07:50:40.796Z,59.13
2023-08-02T07:53:07.434Z,57.65
2023-08-02T07:55:33.295Z,59.63
2023-08-02T07:57:59.125Z,58.03
2023-08-02T08:00:25.803Z,57.84
2023-08-02T08:02:51.946Z,59.39
2023-08-02T08:05:17.812Z,59.06
2023-08-02T08:07:43.685Z,59.32
2023-08-02T08:10:09.576Z,57.54
2023-08-02T08:12:38.730Z,57.86
2023-08-02T08:15:06.072Z,57.87
2023-08-02T08:17:31.929Z,56.90
2023-08-02T08:19:57.920Z,55.81
2023-08-02T08:22:28.927Z,56.07
2023-08-02T08:24:55.357Z,54.60
2023-08-02T08:27:21.246Z,55.63
2023-08-02T08:29:47.044Z,54.78
2023-08-02T08:32:12.921Z,55.11
2023-08-02T08:34:38.751Z,54.51
2023-08-02T08:37:04.652Z,55.26
2023-08-02T08:39:30.490Z,55.43
2023-08-02T08:41:59.210Z,55.67
2023-08-02T08:44:24.911Z,55.10
2023-08-02T08:46:52.585Z,53.59
2023-08-02T08:49:18.494Z,52.66
2023-08-02T08:51:49.804Z,52.41
2023-08-02T08:54:18.780Z,52.16
2023-08-02T08:56:44.618Z,53.45
2023-08-02T08:59:11.444Z,53.73
2023-08-02T09:01:39.122Z,52.80
2023-08-02T09:04:05.216Z,52.87
2023-08-02T09:06:31.767Z,51.60
2023-08-02T09:08:57.557Z,51.44
2023-08-02T09:11:24.108Z,51.36
2023-08-02T09:14:08.309Z,51.72
2023-08-02T09:16:36.122Z,50.19
2023-08-02T09:19:02.229Z,51.49
2023-08-02T09:21:28.115Z,50.38
2023-08-02T09:23:58.831Z,50.85
2023-08-02T09:26:24.819Z,49.32
2023-08-02T09:29:05.411Z,49.79
2023-08-02T09:31:34.045Z,49.80
2023-08-02T09:34:00.041Z,48.83
2023-08-02T09:36:29.839Z,48.71
2023-08-02T09:38:56.589Z,46.57
2023-08-02T09:43:55.226Z,44.88
2023-08-02T09:46:31.321Z,44.31
2023-08-02T09:48:57.821Z,45.83
2023-08-02T09:51:44.150Z,45.32
2023-08-02T09:54:12.873Z,45.74
2023-08-02T09:56:40.226Z,42.90
2023-08-02T09:59:07.629Z,43.38
2023-08-02T10:01:35.020Z,44.74
2023-08-02T10:04:06.697Z,43.45
2023-08-02T10:06:38.951Z,43.73
2023-08-02T10:09:08.476Z,44.40
2023-08-02T10:11:56.888Z,44.27
2023-08-02T10:14:23.498Z,43.44
2023-08-02T10:16:51.755Z,43.31
2023-08-02T10:19:18.072Z,42.89
2023-08-02T10:21:44.518Z,42.55
2023-08-02T10:24:13.082Z,41.69
2023-08-02T10:26:39.962Z,41.36
2023-08-02T10:29:07.574Z,42.45
2023-08-02T10:31:34.237Z,40.80
2023-08-02T10:34:00.114Z,40.71
2023-08-02T10:36:25.937Z,42.24
2023-08-02T10:38:55.550Z,42.60
2023-08-02T10:41:22.949Z,38.56
2023-08-02T10:44:09.457Z,39.69
2023-08-02T10:46:35.414Z,40.65
2023-08-02T10:49:10.463Z,41.25
2023-08-02T10:51:41.542Z,39.95
2023-08-02T10:54:19.322Z,37.70
2023-08-02T10:57:05.250Z,37.69
2023-08-02T10:59:31.026Z,34.59
2023-08-02T11:02:10.217Z,35.13
2023-08-02T11:04:40.754Z,36.44
2023-08-02T11:07:18.662Z,36.81
2023-08-02T11:09:45.873Z,35.54
2023-08-02T11:12:12.696Z,35.51
2023-08-02T11:14:38.996Z,35.29
2023-08-02T11:17:13.379Z,34.81
2023-08-02T11:22:38.513Z,34.39
2023-08-02T11:25:06.945Z,35.00
2023-08-02T11:30:07.173Z,36.38
2023-08-02T11:32:34.285Z,33.31
2023-08-02T11:35:01.106Z,33.05
2023-08-02T11:37:27.437Z,33.10
2023-08-02T11:42:24.533Z,34.91
2023-08-02T11:45:04.285Z,34.17
2023-08-02T11:47:37.100Z,34.77
2023-08-02T11:50:03.548Z,34.28
2023-08-02T11:52:31.750Z,34.49
2023-08-02T11:54:59.879Z,33.88
2023-08-02T11:57:26.742Z,33.12
2023-08-02T11:59:56.690Z,31.54
2023-08-02T12:02:30.140Z,31.26
2023-08-02T12:04:57.053Z,32.54
2023-08-02T12:07:30.702Z,34.22
2023-08-02T12:09:56.961Z,31.83
2023-08-02T12:12:29.488Z,31.59
2023-08-02T12:14:56.000Z,31.89
2023-08-02T12:17:23.371Z,30.51
2023-08-02T12:19:50.262Z,31.77
2023-08-02T12:22:17.868Z,31.40
2023-08-02T12:24:43.705Z,31.10
2023-08-02T12:27:13.824Z,31.36
2023-08-02T12:29:39.666Z,31.75
2023-08-02T12:32:05.855Z,31.48
2023-08-02T12:34:31.712Z,32.00
2023-08-02T12:36:59.962Z,32.39
2023-08-02T12:39:26.341Z,31.86
2023-08-02T12:41:52.197Z,32.39
2023-08-02T12:44:18.030Z,30.19
2023-08-02T12:46:44.158Z,31.06
2023-08-02T12:49:10.193Z,30.42
2023-08-02T12:51:39.127Z,30.42
2023-08-02T12:54:06.125Z,31.37
2023-08-02T12:56:33.588Z,31.73
2023-08-02T12:58:59.532Z,31.67
2023-08-02T13:01:25.398Z,32.00
2023-08-02T13:03:51.367Z,32.30
2023-08-02T13:06:17.371Z,32.70
2023-08-02T13:08:43.245Z,31.22
2023-08-02T13:11:09.112Z,31.48
2023-08-02T13:13:34.907Z,31.78
2023-08-02T13:16:00.791Z,30.91
2023-08-02T13:18:29.134Z,30.88
2023-08-02T13:20:56.244Z,30.08
2023-08-02T13:23:22.073Z,28.76
2023-08-02T13:25:47.934Z,28.67
2023-08-02T13:28:14.582Z,28.96
2023-08-02T13:30:40.433Z,28.64
2023-08-02T13:33:06.373Z,28.21
2023-08-02T13:35:32.205Z,29.47
2023-08-02T13:37:58.503Z,29.86
2023-08-02T13:40:24.629Z,30.84
2023-08-02T13:42:51.035Z,31.35
2023-08-02T13:45:16.899Z,31.37
2023-08-02T13:47:42.750Z,30.72
2023-08-02T13:50:09.105Z,31.00
2023-08-02T13:52:35.166Z,31.37
2023-08-02T13:55:01.694Z,30.56
2023-08-02T13:57:27.857Z,30.55
2023-08-02T13:59:53.701Z,31.40
2023-08-02T14:02:19.738Z,31.10
2023-08-02T14:04:46.674Z,31.62
2023-08-02T14:07:12.958Z,31.36
2023-08-02T14:09:41.270Z,31.68
2023-08-02T14:12:09.639Z,31.46
2023-08-02T14:14:36.186Z,31.02
2023-08-02T14:17:02.319Z,30.20
2023-08-02T14:19:28.145Z,30.92
2023-08-02T14:21:55.386Z,30.63
2023-08-02T14:24:21.457Z,30.27
2023-08-02T14:26:47.284Z,30.13
2023-08-02T14:29:13.118Z,30.44
2023-08-02T14:31:38.999Z,30.92
2023-08-02T14:34:04.826Z,31.05
2023-08-02T14:36:30.678Z,29.73
2023-08-02T14:38:56.558Z,29.58
2023-08-02T14:41:22.412Z,28.73
2023-08-02T14:43:48.264Z,30.21
2023-08-02T14:46:14.213Z,29.64
2023-08-02T14:48:40.002Z,29.85
2023-08-02T14:51:05.808Z,29.36
2023-08-02T14:53:31.641Z,29.15
2023-08-02T14:55:57.535Z,28.78
2023-08-02T14:58:24.098Z,29.23
2023-08-02T15:00:50.457Z,28.21
2023-08-02T15:03:16.485Z,28.68
2023-08-02T15:05:42.610Z,28.83
2023-08-02T15:08:08.535Z,27.97
2023-08-02T15:10:34.405Z,27.33
2023-08-02T15:13:00.223Z,27.14
2023-08-02T15:15:26.058Z,27.52
2023-08-02T15:17:51.925Z,27.64
2023-08-02T15:20:17.947Z,28.30
2023-08-02T15:22:43.783Z,28.45
2023-08-02T15:25:10.040Z,27.88
2023-08-02T15:27:35.938Z,27.43
2023-08-02T15:30:01.721Z,28.41
2023-08-02T15:32:27.589Z,28.14
2023-08-02T15:34:53.433Z,28.33
2023-08-02T15:37:19.583Z,27.58
2023-08-02T15:39:45.414Z,27.05
2023-08-02T15:42:11.988Z,27.73
2023-08-02T15:44:37.768Z,27.68
2023-08-02T15:47:03.835Z,27.13
2023-08-02T15:49:29.628Z,27.35
2023-08-02T15:51:55.416Z,27.76
2023-08-02T15:54:21.224Z,28.55
2023-08-02T15:56:47.364Z,29.27
2023-08-02T15:59:13.326Z,29.29
2023-08-02T16:01:39.124Z,29.23
2023-08-02T16:04:04.936Z,29.61
2023-08-02T16:06:30.827Z,28.91
2023-08-02T16:08:56.708Z,28.99
2023-08-02T16:11:23.193Z,28.60
2023-08-02T16:13:49.141Z,28.91
2023-08-02T16:16:15.031Z,28.42
2023-08-02T16:18:40.846Z,28.67
2023-08-02T16:21:06.704Z,28.95
2023-08-02T16:23:32.874Z,29.51
2023-08-02T16:25:58.725Z,30.18
2023-08-02T16:28:24.589Z,30.36
2023-08-02T16:30:50.562Z,29.74
2023-08-02T16:33:16.410Z,30.32
2023-08-02T16:35:45.232Z,29.41
2023-08-02T16:38:14.778Z,28.79
2023-08-02T16:40:41.634Z,28.87
2023-08-02T16:43:07.433Z,29.07
2023-08-02T16:45:33.241Z,28.86
2023-08-02T16:47:59.093Z,29.07
2023-08-02T16:50:26.787Z,28.75
2023-08-02T16:52:52.694Z,28.56
2023-08-02T16:55:18.519Z,28.69
2023-08-02T16:57:44.303Z,28.54
2023-08-02T17:00:11.208Z,28.41
2023-08-02T17:02:37.009Z,28.30
2023-08-02T17:05:03.197Z,28.13
2023-08-02T17:07:28.990Z,28.28
2023-08-02T17:09:54.869Z,27.94
2023-08-02T17:12:20.811Z,28.83
2023-08-02T17:14:46.631Z,28.68
2023-08-02T17:17:12.817Z,28.28
2023-08-02T17:19:38.826Z,29.00
2023-08-02T17:22:05.110Z,28.84
2023-08-02T17:24:31.116Z,29.22
2023-08-02T17:26:57.051Z,29.85
2023-08-02T17:29:22.923Z,30.73
2023-08-02T17:31:49.324Z,31.69
2023-08-02T17:34:15.222Z,32.12
2023-08-02T17:36:41.016Z,32.50
2023-08-02T17:39:06.801Z,32.36
2023-08-02T17:41:32.925Z,32.81
2023-08-02T17:43:58.737Z,32.67
2023-08-02T17:46:25.675Z,33.10
2023-08-02T17:48:52.269Z,33.18
2023-08-02T17:51:18.377Z,33.50
2023-08-02T17:53:44.581Z,33.58
2023-08-02T17:56:12.384Z,33.48
2023-08-02T17:58:40.009Z,33.78
2023-08-02T18:01:10.716Z,33.86
2023-08-02T18:03:38.270Z,34.57
2023-08-02T18:06:05.701Z,34.22
2023-08-02T18:08:31.527Z,34.63
2023-08-02T18:10:57.398Z,34.53
2023-08-02T18:13:23.245Z,34.96
2023-08-02T18:15:49.046Z,35.06
2023-08-02T18:18:14.952Z,35.54
2023-08-02T18:20:40.819Z,35.58
2023-08-02T18:23:06.733Z,36.02
2023-08-02T18:25:36.701Z,36.09
2023-08-02T18:28:02.680Z,36.20
2023-08-02T18:30:28.539Z,36.17
2023-08-02T18:32:56.643Z,36.33
2023-08-02T18:35:27.073Z,36.94
2023-08-02T18:37:53.748Z,36.70
2023-08-02T18:40:19.738Z,36.69
2023-08-02T18:42:48.920Z,37.32
2023-08-02T18:45:15.925Z,37.44
2023-08-02T18:47:41.762Z,38.24
2023-08-02T18:50:08.242Z,38.57
2023-08-02T18:52:34.672Z,38.48
2023-08-02T18:55:02.013Z,38.38
2023-08-02T18:57:28.567Z,39.04
2023-08-02T18:59:54.621Z,39.81
2023-08-02T19:02:20.603Z,40.14
2023-08-02T19:04:46.485Z,39.96
2023-08-02T19:07:13.811Z,40.35
2023-08-02T19:09:40.205Z,40.47
2023-08-02T19:12:20.451Z,40.93
2023-08-02T19:14:47.422Z,41.24
2023-08-02T19:17:14.384Z,41.38
2023-08-02T19:19:41.470Z,41.64
2023-08-02T19:22:11.880Z,41.19
2023-08-02T19:24:38.172Z,42.15
2023-08-02T19:27:05.450Z,42.19
2023-08-02T19:29:31.721Z,42.20
2023-08-02T19:31:59.137Z,42.51
2023-08-02T19:34:32.705Z,43.18
2023-08-02T19:37:00.350Z,43.17
2023-08-02T19:39:40.970Z,43.32
2023-08-02T19:42:12.655Z,43.87
2023-08-02T19:44:39.082Z,44.05
2023-08-02T19:47:05.113Z,44.32
2023-08-02T19:49:32.833Z,44.91
2023-08-02T19:51:58.637Z,45.27
2023-08-02T19:54:25.002Z,45.27
2023-08-02T19:56:56.049Z,45.29
2023-08-02T19:59:21.895Z,45.44
2023-08-02T20:01:54.873Z,46.03
2023-08-02T20:04:20.943Z,45.90
2023-08-02T20:06:46.942Z,46.37
2023-08-02T20:09:13.634Z,46.33
2023-08-02T20:11:39.953Z,46.59
2023-08-02T20:14:18.688Z,46.66
2023-08-02T20:16:44.722Z,47.29
2023-08-02T20:19:14.647Z,47.67
2023-08-02T20:21:47.115Z,47.54
2023-08-02T20:24:17.230Z,48.07
2023-08-02T20:26:50.228Z,48.07
2023-08-02T20:29:23.979Z,48.68
2023-08-02T20:31:52.994Z,49.01
2023-08-02T20:34:20.491Z,49.27
2023-08-02T20:36:47.280Z,48.90
2023-08-02T20:39:16.960Z,49.13
2023-08-02T20:41:47.719Z,48.85
2023-08-02T20:44:22.954Z,49.83
2023-08-02T20:46:51.698Z,50.11
2023-08-02T20:49:18.621Z,50.14
2023-08-02T20:51:46.408Z,50.23
2023-08-02T20:54:12.845Z,50.10
2023-08-02T20:56:39.876Z,50.33
2023-08-02T20:59:13.548Z,50.56
2023-08-02T21:01:43.760Z,50.92
2023-08-02T21:04:11.599Z,50.10
2023-08-02T21:06:38.413Z,50.58
2023-08-02T21:09:04.579Z,50.64
2023-08-02T21:11:30.529Z,50.79
2023-08-02T21:13:57.337Z,51.76
2023-08-02T21:16:23.328Z,52.17
2023-08-02T21:18:49.395Z,52.18
2023-08-02T21:21:17.189Z,52.23
2023-08-02T21:23:43.430Z,52.54
2023-08-02T21:26:14.951Z,52.54
2023-08-02T21:28:40.827Z,52.81
2023-08-02T21:31:13.082Z,52.90
2023-08-02T21:33:38.984Z,53.63
2023-08-02T21:36:04.882Z,53.55
2023-08-02T21:38:33.281Z,53.73
2023-08-02T21:41:03.143Z,53.67
2023-08-02T21:43:34.361Z,53.80
2023-08-02T21:46:05.979Z,54.23
2023-08-02T21:48:42.667Z,54.03
2023-08-02T21:51:09.376Z,54.34
2023-08-02T21:53:35.768Z,54.69
2023-08-02T21:56:01.698Z,54.81
2023-08-02T21:58:30.077Z,54.92
2023-08-02T22:00:56.878Z,54.93
2023-08-02T22:03:22.974Z,55.31
2023-08-02T22:05:49.166Z,55.14
2023-08-02T22:08:26.727Z,55.12
2023-08-02T22:10:52.525Z,55.34
2023-08-02T22:13:18.340Z,55.05
2023-08-02T22:15:45.440Z,55.43
2023-08-02T22:18:14.265Z,55.53
2023-08-02T22:20:40.740Z,56.01
2023-08-02T22:23:07.107Z,55.89
2023-08-02T22:25:33.189Z,55.96
2023-08-02T22:27:59.019Z,56.27
2023-08-02T22:30:24.854Z,56.32
2023-08-02T22:32:50.791Z,56.33
2023-08-02T22:35:16.635Z,56.38
2023-08-02T22:37:42.483Z,56.41
2023-08-02T22:40:08.613Z,56.35
2023-08-02T22:42:34.462Z,56.30
2023-08-02T22:45:00.317Z,56.34
2023-08-02T22:47:27.955Z,56.78
2023-08-02T22:52:22.494Z,57.24
2023-08-02T22:54:51.187Z,57.84
2023-08-02T22:57:21.746Z,57.48
2023-08-02T22:59:47.806Z,58.03
2023-08-02T23:02:13.854Z,57.88
2023-08-02T23:04:40.891Z,57.64
2023-08-02T23:07:20.904Z,57.91
2023-08-02T23:09:46.806Z,57.96
2023-08-02T23:12:17.617Z,58.28
2023-08-02T23:14:46.124Z,58.16
2023-08-02T23:17:13.682Z,58.35
2023-08-02T23:19:42.085Z,58.46
2023-08-02T23:22:12.682Z,58.68
2023-08-02T23:24:42.093Z,58.94
2023-08-02T23:27:22.776Z,58.98
2023-08-02T23:29:50.229Z,59.57
2023-08-02T23:32:16.020Z,59.14
2023-08-02T23:34:41.850Z,59.09
2023-08-02T23:37:07.706Z,58.99
2023-08-02T23:39:33.568Z,59.00
2023-08-02T23:41:59.366Z,59.04
2023-08-02T23:46:50.826Z,58.69
2023-08-02T23:51:42.587Z,58.71
2023-08-02T23:54:10.597Z,58.37
2023-08-02T23:56:36.878Z,59.04
2023-08-02T23:59:02.790Z,58.86
